Time;durP1;ratioP1;P1;durP2;ratioP2;P2;SDS_P1;SDS_P2;PMS_P1;PMS_P2;Temp;Humidity;BMP_temperature;BMP_pressure;BME280_temperature;BME280_humidity;BME280_pressure;Samples;Min_cycle;Max_cycle;Signal;HPM_P1;HPM_P2
2022/01/10 00:01:43;;;;;;;4.68;2.78;;;;;;;;;;4945533;29;20074;-63
2022/01/10 00:04:10;;;;;;;6.38;2.75;;;;;;;;;;4945268;29;20059;-63
2022/01/10 00:06:37;;;;;;;7.05;2.78;;;;;;;;;;4944258;29;20106;-63
2022/01/10 00:09:05;;;;;;;5.75;2.78;;;;;;;;;;4943915;29;20182;-63
2022/01/10 00:11:32;;;;;;;4.68;2.53;;;;;;;;;;4943286;29;20094;-63
2022/01/10 00:13:58;;;;;;;5.15;2.60;;;;;;;;;;4944065;29;20067;-63
2022/01/10 00:16:25;;;;;;;6.57;2.60;;;;;;;;;;4942835;29;20181;-63
2022/01/10 00:18:52;;;;;;;5.88;2.50;;;;;;;;;;4946621;29;20098;-63
2022/01/10 00:21:18;;;;;;;14.02;3.72;;;;;;;;;;4939294;29;20075;-63
2022/01/10 00:23:45;;;;;;;4.93;2.42;;;;;;;;;;4944187;29;20137;-63
2022/01/10 00:26:13;;;;;;;3.70;2.58;;;;;;;;;;4948676;29;20102;-63
2022/01/10 00:28:39;;;;;;;6.75;3.22;;;;;;;;;;4947908;29;20043;-62
2022/01/10 00:31:06;;;;;;;4.45;2.47;;;;;;;;;;4945244;29;20079;-63
2022/01/10 00:33:33;;;;;;;7.28;2.42;;;;;;;;;;4948101;29;20048;-63
2022/01/10 00:35:59;;;;;;;4.38;2.35;;;;;;;;;;4941694;29;20051;-63
2022/01/10 00:38:26;;;;;;;4.18;2.83;;;;;;;;;;4941074;28;20131;-63
2022/01/10 00:40:52;;;;;;;4.90;2.70;;;;;;;;;;4948083;29;20143;-62
2022/01/10 00:43:30;;;;;;;6.88;2.70;;;;;;;;;;4947828;29;20055;-62
2022/01/10 00:45:57;;;;;;;4.68;2.63;;;;;;;;;;4944298;29;20065;-63
2022/01/10 00:48:24;;;;;;;5.88;2.60;;;;;;;;;;4940867;29;20130;-63
2022/01/10 00:50:51;;;;;;;5.35;2.38;;;;;;;;;;4942387;29;20086;-62
2022/01/10 00:53:17;;;;;;;4.00;2.40;;;;;;;;;;4945508;29;20405;-63
2022/01/10 00:55:44;;;;;;;5.43;2.42;;;;;;;;;;4940828;29;20094;-63
2022/01/10 00:58:10;;;;;;;4.70;2.60;;;;;;;;;;4946699;28;20192;-63
2022/01/10 01:00:38;;;;;;;4.28;2.03;;;;;;;;;;4942410;29;20079;-63
2022/01/10 01:03:05;;;;;;;3.92;2.38;;;;;;;;;;4942333;29;20071;-63
2022/01/10 01:05:34;;;;;;;3.95;2.10;;;;;;;;;;4943817;29;20056;-62
2022/01/10 01:08:06;;;;;;;5.15;2.55;;;;;;;;;;4945604;29;20066;-63
2022/01/10 01:11:04;;;;;;;3.50;1.90;;;;;;;;;;4924178;29;20571;-63
2022/01/10 01:13:35;;;;;;;4.68;2.25;;;;;;;;;;4941496;29;20590;-62
2022/01/10 01:16:17;;;;;;;4.60;2.80;;;;;;;;;;4941082;29;20098;-62
2022/01/10 01:19:24;;;;;;;3.75;2.60;;;;;;;;;;4941253;29;20051;-63
2022/01/10 01:24:34;;;;;;;4.82;2.20;;;;;;;;;;4940637;29;20059;-63
2022/01/10 01:27:01;;;;;;;7.82;2.70;;;;;;;;;;4943773;29;20158;-61
2022/01/10 01:29:29;;;;;;;4.53;2.40;;;;;;;;;;4944758;29;20043;-61
2022/01/10 01:31:58;;;;;;;6.00;2.33;;;;;;;;;;4942680;29;20063;-61
2022/01/10 01:34:25;;;;;;;4.97;2.53;;;;;;;;;;4944135;29;20095;-61
2022/01/10 01:36:55;;;;;;;5.15;2.30;;;;;;;;;;4940541;29;20051;-62
2022/01/10 01:39:25;;;;;;;4.68;2.95;;;;;;;;;;4943569;29;20081;-62
2022/01/10 01:41:54;;;;;;;4.07;2.63;;;;;;;;;;4943697;29;20082;-62
2022/01/10 01:44:20;;;;;;;4.20;2.60;;;;;;;;;;4941976;29;20110;-61
2022/01/10 01:46:47;;;;;;;8.88;2.10;;;;;;;;;;4944478;29;20039;-61
2022/01/10 01:49:16;;;;;;;8.57;2.88;;;;;;;;;;4945091;28;20085;-62
2022/01/10 01:51:43;;;;;;;4.95;2.22;;;;;;;;;;4942416;29;20568;-62
2022/01/10 01:54:10;;;;;;;7.10;3.83;;;;;;;;;;4942462;29;20149;-59
2022/01/10 01:56:37;;;;;;;6.88;3.22;;;;;;;;;;4944031;29;20098;-62
2022/01/10 01:59:03;;;;;;;5.65;2.88;;;;;;;;;;4944215;28;20457;-61
2022/01/10 02:01:30;;;;;;;6.30;3.20;;;;;;;;;;4946113;29;20492;-62
2022/01/10 02:03:57;;;;;;;5.93;2.78;;;;;;;;;;4941958;29;20078;-62
2022/01/10 02:06:25;;;;;;;5.88;2.78;;;;;;;;;;4943548;29;20071;-62
2022/01/10 02:08:51;;;;;;;6.50;3.60;;;;;;;;;;4941884;29;20527;-62
2022/01/10 02:11:18;;;;;;;5.28;3.17;;;;;;;;;;4940279;29;20126;-62
2022/01/10 02:13:44;;;;;;;5.68;3.20;;;;;;;;;;4943065;29;20078;-63
2022/01/10 02:16:16;;;;;;;5.45;3.15;;;;;;;;;;4944153;29;20107;-62
2022/01/10 02:18:44;;;;;;;6.93;3.40;;;;;;;;;;4941636;29;20134;-62
2022/01/10 02:21:14;;;;;;;6.78;3.58;;;;;;;;;;4944129;29;20055;-62
2022/01/10 02:23:41;;;;;;;9.30;4.55;;;;;;;;;;4947751;29;20690;-62
2022/01/10 02:26:08;;;;;;;7.80;4.05;;;;;;;;;;4943605;29;20075;-62
2022/01/10 02:28:34;;;;;;;6.65;3.90;;;;;;;;;;4940791;28;20142;-62
2022/01/10 02:47:20;;;;;;;4.72;2.42;;;;;;;;;;5432443;23;20070;-61
2022/01/10 02:49:47;;;;;;;5.65;3.20;;;;;;;;;;4957456;28;20150;-61
2022/01/10 02:52:13;;;;;;;5.15;2.65;;;;;;;;;;4956345;28;20130;-62
2022/01/10 02:54:42;;;;;;;6.43;2.80;;;;;;;;;;4957913;28;20115;-62
2022/01/10 02:57:08;;;;;;;5.30;2.40;;;;;;;;;;4945905;28;20066;-59
2022/01/10 02:59:37;;;;;;;5.15;2.88;;;;;;;;;;4963264;28;20781;-61
2022/01/10 03:02:03;;;;;;;5.95;3.08;;;;;;;;;;4962853;28;20035;-61
2022/01/10 03:04:31;;;;;;;7.25;3.50;;;;;;;;;;4963969;28;20542;-62
2022/01/10 03:06:58;;;;;;;6.13;3.20;;;;;;;;;;4959685;28;20131;-60
2022/01/10 03:09:25;;;;;;;7.82;3.03;;;;;;;;;;4960687;28;20058;-62
2022/01/10 03:11:52;;;;;;;9.60;3.63;;;;;;;;;;4959866;28;20129;-62
2022/01/10 03:14:19;;;;;;;7.20;3.90;;;;;;;;;;4960372;28;20510;-61
2022/01/10 03:16:45;;;;;;;6.05;3.90;;;;;;;;;;4959985;28;20046;-61
2022/01/10 03:19:12;;;;;;;6.60;2.90;;;;;;;;;;4960426;28;20059;-62
2022/01/10 03:21:40;;;;;;;7.72;4.10;;;;;;;;;;4959924;28;20059;-62
2022/01/10 03:24:06;;;;;;;9.63;3.95;;;;;;;;;;4960917;28;20134;-62
2022/01/10 03:26:33;;;;;;;8.82;3.30;;;;;;;;;;4961938;28;20126;-62
2022/01/10 03:29:00;;;;;;;6.93;3.63;;;;;;;;;;4962116;28;20046;-63
2022/01/10 03:31:27;;;;;;;6.93;4.00;;;;;;;;;;4963215;28;20057;-62
2022/01/10 03:33:54;;;;;;;8.05;3.45;;;;;;;;;;4957901;28;20052;-62
2022/01/10 03:36:20;;;;;;;8.52;3.60;;;;;;;;;;4961433;28;20149;-62
2022/01/10 03:38:48;;;;;;;7.40;4.28;;;;;;;;;;4964955;28;20566;-62
2022/01/10 03:41:15;;;;;;;8.82;4.15;;;;;;;;;;4962976;28;20503;-62
2022/01/10 03:43:41;;;;;;;7.10;4.30;;;;;;;;;;4965096;28;20057;-62
2022/01/10 03:46:08;;;;;;;7.03;3.90;;;;;;;;;;4959872;28;20069;-61
2022/01/10 03:48:35;;;;;;;10.82;4.68;;;;;;;;;;4968570;28;20149;-62
2022/01/10 03:51:01;;;;;;;8.43;4.45;;;;;;;;;;4970629;28;20133;-61
2022/01/10 03:53:28;;;;;;;8.77;4.85;;;;;;;;;;4974228;28;20145;-61
2022/01/10 03:55:56;;;;;;;8.13;4.47;;;;;;;;;;4971487;28;20538;-62
2022/01/10 03:58:23;;;;;;;10.32;4.95;;;;;;;;;;4971274;28;20050;-62
2022/01/10 04:00:50;;;;;;;11.20;5.85;;;;;;;;;;4969057;28;20129;-62
2022/01/10 04:03:17;;;;;;;9.35;5.03;;;;;;;;;;4967850;28;20059;-61
2022/01/10 04:05:43;;;;;;;10.55;4.88;;;;;;;;;;4969301;28;20211;-61
2022/01/10 04:08:12;;;;;;;9.05;4.18;;;;;;;;;;4971087;28;20413;-61
2022/01/10 04:10:38;;;;;;;8.75;5.07;;;;;;;;;;4967628;28;20526;-62
2022/01/10 04:13:06;;;;;;;8.95;5.30;;;;;;;;;;4967296;28;20046;-61
2022/01/10 04:15:33;;;;;;;10.85;4.63;;;;;;;;;;4969144;28;20046;-59
2022/01/10 04:18:01;;;;;;;9.82;5.35;;;;;;;;;;4969615;28;20055;-62
2022/01/10 04:20:28;;;;;;;7.72;4.05;;;;;;;;;;4967082;28;20069;-61
2022/01/10 04:22:55;;;;;;;7.78;4.53;;;;;;;;;;4965490;28;20046;-62
2022/01/10 04:25:21;;;;;;;10.65;4.93;;;;;;;;;;4965603;28;20137;-59
2022/01/10 04:27:48;;;;;;;8.60;5.18;;;;;;;;;;4965336;28;20050;-59
2022/01/10 04:30:16;;;;;;;9.15;5.13;;;;;;;;;;4964628;28;20764;-62
2022/01/10 04:32:44;;;;;;;8.95;4.55;;;;;;;;;;4962343;28;20046;-61
2022/01/10 04:35:11;;;;;;;11.02;4.50;;;;;;;;;;4964543;28;20046;-61
2022/01/10 04:37:38;;;;;;;10.20;4.70;;;;;;;;;;4963833;28;20740;-60
2022/01/10 04:40:05;;;;;;;11.35;5.75;;;;;;;;;;4963886;28;20178;-60
2022/01/10 04:42:32;;;;;;;9.35;5.47;;;;;;;;;;4963040;28;20169;-61
2022/01/10 04:44:58;;;;;;;8.27;4.70;;;;;;;;;;4952570;28;20431;-59
2022/01/10 04:47:26;;;;;;;9.55;4.80;;;;;;;;;;4968867;28;20049;-61
2022/01/10 04:50:08;;;;;;;7.75;4.40;;;;;;;;;;4969707;28;20049;-61
2022/01/10 04:52:35;;;;;;;9.30;5.05;;;;;;;;;;4969568;28;20039;-60
2022/01/10 04:55:02;;;;;;;10.27;5.43;;;;;;;;;;4968057;28;20146;-60
2022/01/10 04:57:28;;;;;;;11.30;5.53;;;;;;;;;;4967128;28;20138;-61
2022/01/10 04:59:55;;;;;;;11.02;5.30;;;;;;;;;;4967903;28;20571;-60
2022/01/10 05:02:22;;;;;;;12.68;5.88;;;;;;;;;;4966388;28;20134;-59
2022/01/10 05:04:50;;;;;;;9.57;5.47;;;;;;;;;;4961825;28;20057;-60
2022/01/10 05:07:17;;;;;;;12.07;6.38;;;;;;;;;;4965354;28;20179;-55
2022/01/10 05:09:43;;;;;;;10.57;5.75;;;;;;;;;;4967720;28;20126;-59
2022/01/10 05:12:10;;;;;;;10.52;6.15;;;;;;;;;;4964177;28;20042;-60
2022/01/10 05:14:36;;;;;;;12.15;6.50;;;;;;;;;;4965129;28;20051;-60
2022/01/10 05:17:03;;;;;;;16.45;7.55;;;;;;;;;;4963769;28;20177;-59
2022/01/10 05:19:30;;;;;;;13.30;7.38;;;;;;;;;;4964544;28;20059;-61
2022/01/10 05:21:58;;;;;;;17.15;8.02;;;;;;;;;;4965394;28;20511;-61
2022/01/10 05:24:24;;;;;;;13.75;7.45;;;;;;;;;;4962784;28;20061;-61
2022/01/10 05:26:51;;;;;;;14.35;7.68;;;;;;;;;;4964065;28;20143;-59
2022/01/10 05:29:18;;;;;;;16.02;8.05;;;;;;;;;;4965454;28;20047;-61
2022/01/10 05:31:45;;;;;;;14.00;7.18;;;;;;;;;;4962688;28;20059;-61
2022/01/10 05:34:12;;;;;;;14.13;7.55;;;;;;;;;;4959094;28;20578;-61
2022/01/10 05:36:38;;;;;;;14.82;8.85;;;;;;;;;;4960011;28;20146;-60
2022/01/10 05:39:07;;;;;;;12.45;6.80;;;;;;;;;;4961853;28;20054;-61
2022/01/10 05:41:34;;;;;;;16.08;7.15;;;;;;;;;;4957773;28;20086;-61
2022/01/10 05:44:01;;;;;;;16.92;8.32;;;;;;;;;;4960389;28;20592;-61
2022/01/10 05:46:27;;;;;;;18.00;8.30;;;;;;;;;;4958296;28;20051;-62
2022/01/10 05:48:59;;;;;;;17.42;8.50;;;;;;;;;;4961886;28;20134;-61
2022/01/10 05:51:28;;;;;;;14.07;7.95;;;;;;;;;;4964965;28;20051;-61
2022/01/10 05:53:54;;;;;;;17.10;9.05;;;;;;;;;;4966996;28;20049;-61
2022/01/10 05:56:22;;;;;;;15.35;7.97;;;;;;;;;;4962965;28;20137;-62
2022/01/10 05:58:49;;;;;;;14.13;7.40;;;;;;;;;;4964526;28;20138;-63
2022/01/10 06:01:16;;;;;;;15.52;7.70;;;;;;;;;;4965307;28;20054;-62
2022/01/10 06:03:42;;;;;;;17.40;9.98;;;;;;;;;;4964322;28;20054;-62
2022/01/10 06:06:09;;;;;;;24.52;11.32;;;;;;;;;;4964936;28;20141;-62
2022/01/10 06:08:36;;;;;;;14.65;7.75;;;;;;;;;;4965746;28;20050;-62
2022/01/10 06:11:03;;;;;;;15.63;8.95;;;;;;;;;;4968388;28;20554;-61
2022/01/10 06:13:31;;;;;;;15.73;9.25;;;;;;;;;;4967424;28;20154;-62
2022/01/10 06:15:58;;;;;;;22.50;9.43;;;;;;;;;;4962823;28;20133;-62
2022/01/10 06:18:24;;;;;;;20.65;9.57;;;;;;;;;;4963026;28;20134;-62
2022/01/10 06:20:51;;;;;;;18.02;8.75;;;;;;;;;;4945549;28;20129;-62
2022/01/10 06:23:17;;;;;;;21.48;9.68;;;;;;;;;;4962243;28;20046;-62
2022/01/10 06:25:44;;;;;;;15.95;8.38;;;;;;;;;;4962095;28;20463;-63
2022/01/10 06:28:10;;;;;;;18.40;8.23;;;;;;;;;;4968340;28;20134;-62
2022/01/10 06:30:38;;;;;;;17.95;9.48;;;;;;;;;;4960698;28;20045;-62
2022/01/10 06:33:05;;;;;;;14.65;8.43;;;;;;;;;;4947621;28;20475;-63
2022/01/10 06:35:32;;;;;;;17.25;7.15;;;;;;;;;;4963119;28;20141;-63
2022/01/10 06:37:58;;;;;;;18.63;7.82;;;;;;;;;;4965346;28;20051;-63
2022/01/10 06:40:25;;;;;;;18.38;9.70;;;;;;;;;;4966044;28;20511;-63
2022/01/10 06:42:51;;;;;;;20.65;9.07;;;;;;;;;;4969109;28;20058;-62
2022/01/10 06:45:18;;;;;;;18.05;8.18;;;;;;;;;;4967249;28;20385;-62
2022/01/10 06:47:46;;;;;;;17.17;8.73;;;;;;;;;;4963061;28;20141;-62
2022/01/10 06:50:13;;;;;;;15.80;9.77;;;;;;;;;;4968999;28;20420;-62
2022/01/10 06:52:40;;;;;;;16.45;9.75;;;;;;;;;;4966252;28;20145;-62
2022/01/10 06:55:07;;;;;;;20.52;12.15;;;;;;;;;;4969157;28;20587;-61
2022/01/10 06:57:33;;;;;;;28.55;12.27;;;;;;;;;;4966357;28;20169;-62
2022/01/10 07:00:01;;;;;;;19.20;11.20;;;;;;;;;;4968061;28;20138;-62
2022/01/10 07:02:28;;;;;;;15.88;9.80;;;;;;;;;;4962158;28;20465;-62
2022/01/10 07:04:56;;;;;;;20.30;11.57;;;;;;;;;;4962782;28;20051;-62
2022/01/10 07:07:22;;;;;;;21.52;10.35;;;;;;;;;;4961187;28;20137;-62
2022/01/10 07:09:49;;;;;;;20.77;10.95;;;;;;;;;;4964150;28;20047;-62
2022/01/10 07:12:15;;;;;;;27.52;11.50;;;;;;;;;;4963257;28;20763;-63
2022/01/10 07:14:42;;;;;;;25.98;12.15;;;;;;;;;;4947259;28;20077;-62
2022/01/10 07:17:08;;;;;;;17.50;8.80;;;;;;;;;;4962617;28;20554;-62
2022/01/10 07:19:36;;;;;;;16.55;8.35;;;;;;;;;;4964296;28;20097;-62
2022/01/10 07:22:05;;;;;;;17.85;8.98;;;;;;;;;;4964049;28;20069;-62
2022/01/10 07:24:32;;;;;;;17.90;8.75;;;;;;;;;;4964295;28;20086;-62
2022/01/10 07:26:59;;;;;;;16.63;9.60;;;;;;;;;;4963158;28;20046;-62
2022/01/10 07:29:25;;;;;;;16.10;7.97;;;;;;;;;;4967663;28;20670;-63
2022/01/10 07:31:52;;;;;;;19.15;8.80;;;;;;;;;;4966265;28;20057;-62
2022/01/10 07:34:18;;;;;;;16.27;8.60;;;;;;;;;;4966876;28;21718;-59
2022/01/10 07:36:45;;;;;;;13.73;7.60;;;;;;;;;;4963430;28;20551;-62
2022/01/10 07:39:13;;;;;;;17.08;8.88;;;;;;;;;;4964631;28;20174;-61
2022/01/10 07:41:40;;;;;;;16.27;8.20;;;;;;;;;;4967432;28;20050;-62
2022/01/10 07:44:06;;;;;;;14.60;8.18;;;;;;;;;;4967434;28;20046;-62
2022/01/10 07:46:33;;;;;;;15.13;8.10;;;;;;;;;;4966244;28;20054;-62
2022/01/10 07:48:59;;;;;;;15.07;7.90;;;;;;;;;;4970564;28;20125;-61
2022/01/10 07:51:27;;;;;;;15.55;8.63;;;;;;;;;;4966223;28;20174;-62
2022/01/10 07:53:54;;;;;;;14.43;8.20;;;;;;;;;;4953041;28;20062;-62
2022/01/10 07:56:22;;;;;;;15.93;7.97;;;;;;;;;;4967079;28;20438;-61
2022/01/10 07:58:51;;;;;;;21.45;8.70;;;;;;;;;;4968410;28;20042;-61
2022/01/10 08:01:19;;;;;;;22.38;9.23;;;;;;;;;;4967916;28;20050;-62
2022/01/10 08:03:45;;;;;;;17.15;8.05;;;;;;;;;;4966724;28;20054;-61
2022/01/10 08:06:12;;;;;;;19.77;8.85;;;;;;;;;;4966254;28;20055;-61
2022/01/10 08:08:39;;;;;;;15.95;8.77;;;;;;;;;;4967248;28;20133;-62
2022/01/10 08:11:05;;;;;;;17.83;8.95;;;;;;;;;;4965974;28;20057;-62
2022/01/10 08:13:33;;;;;;;14.63;8.43;;;;;;;;;;4966319;28;20047;-61
2022/01/10 08:16:00;;;;;;;18.52;9.55;;;;;;;;;;4963971;28;20061;-58
2022/01/10 08:18:30;;;;;;;16.88;9.13;;;;;;;;;;4966417;28;20083;-62
2022/01/10 08:20:56;;;;;;;15.65;9.15;;;;;;;;;;4965927;28;20137;-61
2022/01/10 08:23:23;;;;;;;13.65;8.00;;;;;;;;;;4968955;28;20070;-62
2022/01/10 08:25:50;;;;;;;16.88;10.00;;;;;;;;;;4969640;28;20054;-61
2022/01/10 08:28:16;;;;;;;15.00;8.93;;;;;;;;;;4971527;28;20053;-62
2022/01/10 08:30:44;;;;;;;17.67;9.73;;;;;;;;;;4968828;28;20138;-62
2022/01/10 08:33:10;;;;;;;20.65;10.40;;;;;;;;;;4964113;28;20121;-62
2022/01/10 08:35:37;;;;;;;18.38;9.98;;;;;;;;;;4968123;28;20473;-60
2022/01/10 08:38:04;;;;;;;19.02;9.43;;;;;;;;;;4967017;28;20512;-62
2022/01/10 08:40:30;;;;;;;20.00;9.85;;;;;;;;;;4972699;28;20053;-62
2022/01/10 08:42:57;;;;;;;20.95;9.98;;;;;;;;;;4970416;28;20511;-62
2022/01/10 08:45:24;;;;;;;19.55;10.15;;;;;;;;;;4968968;28;20153;-62
2022/01/10 08:47:52;;;;;;;21.35;10.05;;;;;;;;;;4970861;28;20571;-62
2022/01/10 08:50:18;;;;;;;15.48;9.35;;;;;;;;;;4969903;28;20135;-62
2022/01/10 08:52:45;;;;;;;17.52;9.45;;;;;;;;;;4968936;28;20137;-62
2022/01/10 08:55:12;;;;;;;18.33;9.52;;;;;;;;;;4970553;28;20137;-62
2022/01/10 08:57:38;;;;;;;17.55;9.18;;;;;;;;;;4967301;28;20152;-62
2022/01/10 09:00:06;;;;;;;17.13;10.32;;;;;;;;;;4969677;28;20133;-62
2022/01/10 09:02:33;;;;;;;19.10;10.20;;;;;;;;;;4960474;28;20571;-63
2022/01/10 09:05:01;;;;;;;16.88;9.73;;;;;;;;;;4968055;28;20145;-62
2022/01/10 09:07:28;;;;;;;16.85;9.32;;;;;;;;;;4962519;28;20345;-61
2022/01/10 09:09:54;;;;;;;17.40;8.88;;;;;;;;;;4964758;28;20121;-62
2022/01/10 09:12:21;;;;;;;18.48;9.55;;;;;;;;;;4969522;28;20499;-61
2022/01/10 09:14:47;;;;;;;19.00;9.75;;;;;;;;;;4969041;28;20618;-62
2022/01/10 09:17:14;;;;;;;18.08;9.70;;;;;;;;;;4970007;28;20142;-62
2022/01/10 09:19:40;;;;;;;16.48;9.35;;;;;;;;;;4968242;28;20055;-62
2022/01/10 09:22:08;;;;;;;16.60;9.77;;;;;;;;;;4968842;28;20074;-62
2022/01/10 09:24:35;;;;;;;21.40;9.70;;;;;;;;;;4968258;28;20133;-62
2022/01/10 09:27:01;;;;;;;20.95;9.93;;;;;;;;;;4968353;28;20098;-62
2022/01/10 09:29:28;;;;;;;17.08;9.68;;;;;;;;;;4967215;28;20883;-62
2022/01/10 09:31:55;;;;;;;17.60;9.68;;;;;;;;;;4968678;28;20129;-62
2022/01/10 09:34:21;;;;;;;15.43;9.38;;;;;;;;;;4968088;28;20139;-62
2022/01/10 09:36:48;;;;;;;21.95;11.00;;;;;;;;;;4968248;28;20521;-62
2022/01/10 09:39:16;;;;;;;18.55;10.07;;;;;;;;;;4963143;28;20133;-62
2022/01/10 09:41:43;;;;;;;18.38;9.95;;;;;;;;;;4970933;28;20153;-62
2022/01/10 09:44:09;;;;;;;18.98;10.50;;;;;;;;;;4966877;28;20049;-62
2022/01/10 09:46:36;;;;;;;16.75;9.90;;;;;;;;;;4970205;28;20050;-61
2022/01/10 09:49:04;;;;;;;16.75;9.88;;;;;;;;;;4968947;28;20142;-62
2022/01/10 09:51:32;;;;;;;16.48;10.00;;;;;;;;;;4964843;28;20047;-62
2022/01/10 09:54:00;;;;;;;15.90;9.40;;;;;;;;;;4968713;28;20079;-62
2022/01/10 09:56:29;;;;;;;25.48;12.75;;;;;;;;;;4967298;28;20129;-62
2022/01/10 09:58:55;;;;;;;19.83;10.52;;;;;;;;;;4968806;28;20046;-62
2022/01/10 10:01:22;;;;;;;15.95;9.90;;;;;;;;;;4967582;28;20146;-62
2022/01/10 10:03:50;;;;;;;22.33;13.00;;;;;;;;;;4966487;28;20478;-62
2022/01/10 10:06:17;;;;;;;18.90;10.38;;;;;;;;;;4968152;28;20578;-62
2022/01/10 10:08:44;;;;;;;20.10;10.50;;;;;;;;;;4971301;28;20125;-61
2022/01/10 10:11:11;;;;;;;18.00;10.15;;;;;;;;;;4962581;28;20043;-62
2022/01/10 10:13:44;;;;;;;24.15;12.15;;;;;;;;;;4965922;28;20126;-62
2022/01/10 10:16:16;;;;;;;21.23;10.43;;;;;;;;;;4967782;28;20097;-62
2022/01/10 10:18:43;;;;;;;17.27;9.85;;;;;;;;;;4966902;28;20079;-61
2022/01/10 10:21:14;;;;;;;21.48;10.32;;;;;;;;;;4968210;28;20057;-62
2022/01/10 10:23:46;;;;;;;20.65;11.45;;;;;;;;;;4965059;28;20133;-63
2022/01/10 10:26:15;;;;;;;28.20;11.15;;;;;;;;;;4967236;28;20098;-62
2022/01/10 10:28:45;;;;;;;18.17;9.68;;;;;;;;;;4968573;28;20073;-63
2022/01/10 10:31:11;;;;;;;19.55;9.82;;;;;;;;;;4962778;28;20138;-62
2022/01/10 10:33:47;;;;;;;18.48;9.50;;;;;;;;;;4968361;28;20138;-62
2022/01/10 10:36:14;;;;;;;19.17;10.65;;;;;;;;;;4968512;28;20158;-62
2022/01/10 10:38:40;;;;;;;21.40;10.70;;;;;;;;;;4967020;28;20129;-62
2022/01/10 10:41:07;;;;;;;17.80;10.20;;;;;;;;;;4965264;28;20129;-62
2022/01/10 10:43:34;;;;;;;19.23;10.25;;;;;;;;;;4966265;28;20047;-62
2022/01/10 10:46:03;;;;;;;16.10;8.77;;;;;;;;;;4962901;28;20044;-62
2022/01/10 10:48:34;;;;;;;17.38;9.65;;;;;;;;;;4967961;28;20091;-62
2022/01/10 10:51:01;;;;;;;20.02;9.82;;;;;;;;;;4967943;28;20058;-62
2022/01/10 10:53:29;;;;;;;21.60;10.00;;;;;;;;;;4964459;28;20054;-62
2022/01/10 10:55:59;;;;;;;36.83;12.70;;;;;;;;;;4965715;28;20563;-62
2022/01/10 10:58:26;;;;;;;18.40;9.48;;;;;;;;;;4968357;28;20491;-62
2022/01/10 11:00:54;;;;;;;18.40;9.55;;;;;;;;;;4964040;28;20587;-62
2022/01/10 11:03:22;;;;;;;21.88;10.30;;;;;;;;;;4963704;28;20582;-62
2022/01/10 11:05:49;;;;;;;20.77;9.43;;;;;;;;;;4966998;28;20131;-63
2022/01/10 11:08:16;;;;;;;24.08;10.63;;;;;;;;;;4966049;28;20067;-62
2022/01/10 11:10:43;;;;;;;20.67;10.25;;;;;;;;;;4966284;28;20068;-62
2022/01/10 11:13:11;;;;;;;20.40;9.45;;;;;;;;;;4969426;28;20209;-63
2022/01/10 11:15:39;;;;;;;22.42;11.25;;;;;;;;;;4968229;28;20071;-62
2022/01/10 11:18:08;;;;;;;21.15;10.48;;;;;;;;;;4970592;28;20106;-63
2022/01/10 11:20:42;;;;;;;16.02;8.50;;;;;;;;;;4969468;28;20042;-62
2022/01/10 11:23:10;;;;;;;18.23;8.50;;;;;;;;;;4962380;28;20142;-62
2022/01/10 11:25:39;;;;;;;17.17;7.90;;;;;;;;;;4969483;28;20579;-62
2022/01/10 11:28:08;;;;;;;15.77;7.13;;;;;;;;;;4973613;28;20050;-62
2022/01/10 11:30:36;;;;;;;17.50;9.02;;;;;;;;;;4965369;28;20054;-62
2022/01/10 11:33:07;;;;;;;13.35;6.38;;;;;;;;;;4971444;28;20061;-62
2022/01/10 11:35:36;;;;;;;20.50;7.00;;;;;;;;;;4968117;28;20054;-62
2022/01/10 11:38:29;;;;;;;15.00;7.18;;;;;;;;;;4968370;28;20539;-60
2022/01/10 11:40:57;;;;;;;16.83;7.40;;;;;;;;;;4966411;28;20043;-59
2022/01/10 11:43:33;;;;;;;21.50;8.13;;;;;;;;;;4967362;28;20082;-63
2022/01/10 11:46:12;;;;;;;16.48;7.10;;;;;;;;;;4967551;28;20057;-62
2022/01/10 11:48:43;;;;;;;10.60;6.30;;;;;;;;;;4971511;28;20145;-62
2022/01/10 11:51:14;;;;;;;13.70;6.72;;;;;;;;;;4968381;28;20054;-62
2022/01/10 11:53:44;;;;;;;17.88;7.28;;;;;;;;;;4970144;28;20134;-62
2022/01/10 11:56:25;;;;;;;10.55;6.40;;;;;;;;;;4970404;28;20039;-62
2022/01/10 11:59:10;;;;;;;14.85;7.35;;;;;;;;;;4967344;28;20141;-62
2022/01/10 12:01:39;;;;;;;10.83;6.83;;;;;;;;;;4970123;28;20121;-62
2022/01/10 12:04:06;;;;;;;13.50;7.40;;;;;;;;;;4971647;28;20733;-62
2022/01/10 12:06:32;;;;;;;13.30;7.75;;;;;;;;;;4968559;28;20158;-62
2022/01/10 12:09:00;;;;;;;14.45;6.70;;;;;;;;;;4963291;28;20134;-62
2022/01/10 12:11:28;;;;;;;16.13;7.10;;;;;;;;;;4972459;28;20849;-62
2022/01/10 12:13:56;;;;;;;14.45;8.02;;;;;;;;;;4972799;28;20050;-63
2022/01/10 12:16:23;;;;;;;13.13;7.35;;;;;;;;;;4969277;28;20069;-62
2022/01/10 12:18:50;;;;;;;16.60;8.15;;;;;;;;;;4970032;28;20050;-62
2022/01/10 12:21:17;;;;;;;13.02;6.75;;;;;;;;;;4969028;28;20433;-63
2022/01/10 12:23:43;;;;;;;17.58;9.00;;;;;;;;;;4971681;28;20517;-62
2022/01/10 12:26:11;;;;;;;10.65;6.32;;;;;;;;;;4970338;28;20050;-62
2022/01/10 12:28:38;;;;;;;13.98;7.85;;;;;;;;;;4966985;28;20133;-62
2022/01/10 12:31:05;;;;;;;16.23;9.27;;;;;;;;;;4967396;28;21053;-62
2022/01/10 12:33:33;;;;;;;15.75;7.70;;;;;;;;;;4963933;28;20141;-62
2022/01/10 12:36:02;;;;;;;13.70;7.53;;;;;;;;;;4960579;28;20126;-62
2022/01/10 12:38:29;;;;;;;19.45;8.57;;;;;;;;;;4965051;28;20070;-62
2022/01/10 12:40:55;;;;;;;14.85;8.48;;;;;;;;;;4967733;28;20089;-62
2022/01/10 12:43:23;;;;;;;15.63;8.48;;;;;;;;;;4971429;28;20137;-62
2022/01/10 12:45:50;;;;;;;16.60;7.88;;;;;;;;;;4966677;28;20555;-61
2022/01/10 12:48:17;;;;;;;12.98;8.10;;;;;;;;;;4972094;28;20495;-62
2022/01/10 12:50:48;;;;;;;14.70;7.35;;;;;;;;;;4965251;28;20134;-61
2022/01/10 12:53:18;;;;;;;15.55;8.70;;;;;;;;;;4967726;28;20050;-60
2022/01/10 12:55:45;;;;;;;17.38;8.48;;;;;;;;;;4967230;28;20054;-61
2022/01/10 12:58:12;;;;;;;17.25;8.80;;;;;;;;;;4969597;28;20078;-61
2022/01/10 13:00:40;;;;;;;15.00;7.75;;;;;;;;;;4972487;28;20471;-62
2022/01/10 13:03:07;;;;;;;21.08;10.48;;;;;;;;;;4970195;28;20051;-62
2022/01/10 13:05:35;;;;;;;22.67;10.68;;;;;;;;;;4963576;28;20139;-61
2022/01/10 13:08:02;;;;;;;18.17;9.75;;;;;;;;;;4967609;28;20153;-62
2022/01/10 13:10:33;;;;;;;18.63;10.10;;;;;;;;;;4970789;28;20134;-62
2022/01/10 13:13:01;;;;;;;15.55;8.25;;;;;;;;;;4965903;28;20057;-62
2022/01/10 13:15:37;;;;;;;15.00;7.78;;;;;;;;;;4967716;28;20038;-61
2022/01/10 13:18:06;;;;;;;17.90;8.80;;;;;;;;;;4967292;28;20043;-62
2022/01/10 13:20:35;;;;;;;15.82;8.55;;;;;;;;;;4964988;28;20050;-62
2022/01/10 13:23:04;;;;;;;14.40;8.18;;;;;;;;;;4968961;28;20133;-62
2022/01/10 13:25:37;;;;;;;20.13;8.35;;;;;;;;;;4968775;28;20058;-62
2022/01/10 13:28:07;;;;;;;17.20;7.90;;;;;;;;;;4967466;28;20054;-62
2022/01/10 13:30:34;;;;;;;19.88;8.45;;;;;;;;;;4961913;28;20055;-62
2022/01/10 13:33:04;;;;;;;15.48;9.13;;;;;;;;;;4970457;28;20051;-62
2022/01/10 13:35:32;;;;;;;18.08;8.90;;;;;;;;;;4969906;28;20204;-62
2022/01/10 13:38:01;;;;;;;17.77;9.55;;;;;;;;;;4967356;28;20050;-62
2022/01/10 13:40:29;;;;;;;23.33;9.85;;;;;;;;;;4954766;28;20069;-62
2022/01/10 13:43:03;;;;;;;16.02;8.45;;;;;;;;;;4970233;28;20142;-62
2022/01/10 13:45:41;;;;;;;21.70;9.60;;;;;;;;;;4966111;28;20046;-62
2022/01/10 13:48:11;;;;;;;18.30;8.80;;;;;;;;;;4968106;28;20499;-62
2022/01/10 13:50:43;;;;;;;18.73;10.43;;;;;;;;;;4969080;28;20057;-62
2022/01/10 13:53:12;;;;;;;22.60;10.63;;;;;;;;;;4963800;28;20051;-60
2022/01/10 13:55:43;;;;;;;18.35;8.68;;;;;;;;;;4968792;28;20130;-62
2022/01/10 13:58:23;;;;;;;16.00;8.40;;;;;;;;;;4967590;28;20507;-61
2022/01/10 14:00:53;;;;;;;15.52;7.63;;;;;;;;;;4969394;28;20129;-62
2022/01/10 14:03:22;;;;;;;16.40;8.13;;;;;;;;;;4968211;28;20125;-62
2022/01/10 14:06:09;;;;;;;17.20;8.70;;;;;;;;;;4968236;28;20042;-63
2022/01/10 14:08:35;;;;;;;;;;;;;;;;;;4969473;28;20046;-62
2022/01/10 14:11:02;;;;;;;13.70;7.45;;;;;;;;;;4969817;28;20005;-62
2022/01/10 14:13:29;;;;;;;13.45;8.02;;;;;;;;;;4969393;28;20042;-62
2022/01/10 14:15:55;;;;;;;12.55;7.70;;;;;;;;;;4962280;28;20134;-62
2022/01/10 14:18:22;;;;;;;15.43;7.72;;;;;;;;;;4970837;28;20134;-62
2022/01/10 14:20:50;;;;;;;12.35;7.18;;;;;;;;;;4969489;28;20071;-62
2022/01/10 14:23:17;;;;;;;13.65;7.63;;;;;;;;;;4970043;28;20539;-62
2022/01/10 14:25:44;;;;;;;15.93;8.07;;;;;;;;;;4966515;28;20133;-62
2022/01/10 14:28:11;;;;;;;15.18;7.63;;;;;;;;;;4968049;28;20137;-62
2022/01/10 14:30:37;;;;;;;12.80;7.93;;;;;;;;;;4969925;28;20134;-62
2022/01/10 14:33:04;;;;;;;17.35;8.25;;;;;;;;;;4968632;28;20126;-62
2022/01/10 14:35:31;;;;;;;13.80;8.15;;;;;;;;;;4966591;28;20141;-62
2022/01/10 14:37:59;;;;;;;14.75;7.68;;;;;;;;;;4967758;28;20137;-62
2022/01/10 14:40:25;;;;;;;15.57;8.00;;;;;;;;;;4966960;28;20074;-62
2022/01/10 14:42:52;;;;;;;14.48;8.18;;;;;;;;;;4967709;28;20086;-62
2022/01/10 14:45:19;;;;;;;17.67;7.60;;;;;;;;;;4947936;28;20134;-62
2022/01/10 14:47:45;;;;;;;14.35;7.80;;;;;;;;;;4967465;28;20047;-62
2022/01/10 14:50:15;;;;;;;15.45;7.82;;;;;;;;;;4969235;28;20058;-62
2022/01/10 14:52:42;;;;;;;13.55;7.50;;;;;;;;;;4967130;28;20047;-62
2022/01/10 14:55:10;;;;;;;15.05;7.85;;;;;;;;;;4964743;28;20138;-62
2022/01/10 14:57:37;;;;;;;15.55;8.57;;;;;;;;;;4969181;28;20082;-62